createdAt,value
2023-03-20T00:01:33.635Z,7.60
2023-03-20T00:06:35.790Z,7.70
2023-03-20T00:11:46.161Z,7.70
2023-03-20T00:16:50.295Z,7.80
2023-03-20T00:21:53.306Z,8.10
2023-03-20T00:26:56.960Z,8.00
2023-03-20T00:32:00.733Z,7.90
2023-03-20T00:37:02.973Z,7.90
2023-03-20T00:42:09.659Z,7.80
2023-03-20T00:47:17.434Z,7.80
2023-03-20T00:52:20.343Z,7.80
2023-03-20T00:57:27.535Z,7.70
2023-03-20T01:02:31.621Z,7.80
2023-03-20T01:07:34.011Z,7.90
2023-03-20T01:12:37.667Z,8.00
2023-03-20T01:17:39.660Z,8.10
2023-03-20T01:22:41.976Z,8.00
2023-03-20T01:27:48.224Z,8.00
2023-03-20T01:32:51.475Z,7.80
2023-03-20T01:37:53.809Z,7.80
2023-03-20T01:42:57.415Z,7.70
2023-03-20T01:48:00.129Z,7.70
2023-03-20T01:53:10.407Z,7.80
2023-03-20T01:58:17.313Z,7.80
2023-03-20T02:03:20.858Z,7.80
2023-03-20T02:08:28.427Z,7.90
2023-03-20T02:13:33.092Z,7.80
2023-03-20T02:18:35.967Z,7.70
2023-03-20T02:24:16.331Z,7.70
2023-03-20T02:29:50.871Z,7.80
2023-03-20T02:35:35.172Z,7.80
2023-03-20T02:40:46.120Z,7.70
2023-03-20T02:45:55.284Z,7.60
2023-03-20T02:51:04.305Z,7.50
2023-03-20T02:56:13.887Z,7.60
2023-03-20T03:01:20.588Z,7.60
2023-03-20T03:06:27.733Z,7.70
2023-03-20T03:11:34.214Z,7.60
2023-03-20T03:16:39.647Z,7.50
2023-03-20T03:21:42.870Z,7.50
2023-03-20T03:26:47.231Z,7.60
2023-03-20T03:31:50.241Z,7.60
2023-03-20T03:36:58.378Z,7.60
2023-03-20T03:42:10.612Z,7.60
2023-03-20T03:47:18.215Z,7.60
2023-03-20T03:52:24.404Z,7.70
2023-03-20T03:57:33.041Z,7.70
2023-03-20T04:02:36.966Z,7.80
2023-03-20T04:07:40.093Z,7.80
2023-03-20T04:12:44.533Z,7.90
2023-03-20T04:17:46.997Z,7.90
2023-03-20T04:22:49.119Z,7.90
2023-03-20T04:27:52.391Z,7.80
2023-03-20T04:32:54.655Z,7.80
2023-03-20T04:37:56.823Z,7.80
2023-03-20T04:43:00.627Z,7.90
2023-03-20T04:48:02.809Z,7.90
2023-03-20T04:53:04.637Z,7.90
2023-03-20T04:58:08.876Z,7.90
2023-03-20T05:03:11.144Z,7.80
2023-03-20T05:08:13.527Z,7.80
2023-03-20T05:13:17.396Z,7.80
2023-03-20T05:18:19.652Z,7.80
2023-03-20T05:23:21.536Z,7.70
2023-03-20T05:28:25.431Z,7.80
2023-03-20T05:33:27.828Z,7.90
2023-03-20T05:38:29.725Z,8.00
2023-03-20T05:43:33.437Z,7.90
2023-03-20T05:48:35.789Z,7.90
2023-03-20T05:53:38.145Z,7.90
2023-03-20T05:58:42.476Z,7.80
2023-03-20T06:03:44.677Z,7.80
2023-03-20T06:08:46.926Z,7.90
2023-03-20T06:13:51.327Z,7.90
2023-03-20T06:18:53.735Z,7.90
2023-03-20T06:23:55.557Z,7.90
2023-03-20T06:28:59.207Z,7.90
2023-03-20T06:34:01.298Z,7.90
2023-03-20T06:39:04.696Z,7.90
2023-03-20T06:44:08.288Z,7.90
2023-03-20T06:49:10.408Z,7.90
2023-03-20T06:54:12.867Z,8.10
2023-03-20T06:59:16.775Z,8.20
2023-03-20T07:04:18.779Z,8.30
2023-03-20T07:09:22.299Z,8.30
2023-03-20T07:14:25.985Z,8.30
2023-03-20T07:19:28.822Z,8.40
2023-03-20T07:24:30.841Z,8.50
2023-03-20T07:29:34.618Z,8.60
2023-03-20T07:34:37.042Z,8.50
2023-03-20T07:39:39.021Z,8.60
2023-03-20T07:44:42.966Z,8.70
2023-03-20T07:49:45.141Z,8.70
2023-03-20T07:54:47.438Z,8.80
2023-03-20T07:59:51.303Z,8.80
2023-03-20T08:04:53.251Z,8.90
2023-03-20T08:09:55.754Z,9.10
2023-03-20T08:14:59.636Z,9.30
2023-03-20T08:20:02.177Z,9.50
2023-03-20T08:25:04.323Z,9.80
2023-03-20T08:30:09.720Z,10.10
2023-03-20T08:35:29.784Z,10.20
2023-03-20T08:40:34.253Z,10.80
2023-03-20T08:45:38.089Z,11.30
2023-03-20T08:50:40.705Z,10.90
2023-03-20T08:55:43.191Z,11.40
2023-03-20T09:00:46.881Z,11.50
2023-03-20T09:05:51.205Z,10.90
2023-03-20T09:10:55.784Z,10.70
2023-03-20T09:15:59.748Z,10.80
2023-03-20T09:21:02.257Z,10.70
2023-03-20T09:26:04.448Z,10.70
2023-03-20T09:31:08.400Z,10.90
2023-03-20T09:36:12.015Z,11.20
2023-03-20T09:41:19.194Z,11.50
2023-03-20T09:46:42.277Z,11.50
2023-03-20T09:51:49.674Z,11.50
2023-03-20T09:56:55.248Z,11.60
2023-03-20T10:02:03.625Z,12.10
2023-03-20T10:07:07.341Z,12.60
2023-03-20T10:12:28.981Z,13.50
2023-03-20T10:17:46.253Z,14.00
2023-03-20T10:22:52.728Z,15.80
2023-03-20T10:28:00.434Z,18.50
2023-03-20T10:33:17.342Z,19.70
2023-03-20T10:38:28.259Z,19.00
2023-03-20T10:43:37.407Z,18.90
2023-03-20T10:48:46.725Z,20.60
2023-03-20T10:53:51.142Z,21.60
2023-03-20T10:58:59.568Z,21.90
2023-03-20T11:04:03.689Z,21.90
2023-03-20T11:09:19.367Z,22.20
2023-03-20T11:14:24.196Z,21.80
2023-03-20T11:19:28.416Z,23.00
2023-03-20T11:24:41.140Z,23.30
2023-03-20T11:29:45.964Z,23.20
2023-03-20T11:34:50.073Z,23.70
2023-03-20T11:39:59.510Z,24.30
2023-03-20T11:45:03.204Z,25.00
2023-03-20T11:50:09.120Z,24.50
2023-03-20T11:55:27.905Z,24.00
2023-03-20T12:00:37.599Z,24.00
2023-03-20T12:05:41.463Z,24.50
2023-03-20T12:10:45.905Z,24.10
2023-03-20T12:15:53.860Z,21.70
2023-03-20T12:21:08.749Z,22.60
2023-03-20T12:26:15.180Z,23.70
2023-03-20T12:31:26.873Z,24.20
2023-03-20T12:36:36.171Z,24.90
2023-03-20T12:41:48.542Z,25.50
2023-03-20T12:46:57.979Z,25.70
2023-03-20T12:52:10.410Z,25.20
2023-03-20T12:57:23.880Z,25.30
2023-03-20T13:02:42.915Z,25.90
2023-03-20T13:08:05.442Z,26.40
2023-03-20T13:13:18.623Z,26.50
2023-03-20T13:18:30.103Z,26.80
2023-03-20T13:23:42.725Z,27.00
2023-03-20T13:28:54.707Z,26.40
2023-03-20T13:34:03.701Z,26.90
2023-03-20T13:39:13.528Z,26.80
2023-03-20T13:44:21.196Z,27.80
2023-03-20T13:49:27.179Z,28.10
2023-03-20T13:54:43.076Z,27.70
2023-03-20T13:59:59.938Z,24.70
2023-03-20T14:05:07.876Z,26.70
2023-03-20T14:10:41.728Z,26.50
2023-03-20T14:15:51.077Z,26.70
2023-03-20T14:20:57.509Z,25.90
2023-03-20T14:26:01.347Z,27.10
2023-03-20T14:31:25.437Z,27.80
2023-03-20T14:36:31.600Z,27.60
2023-03-20T14:41:49.165Z,26.80
2023-03-20T14:46:56.137Z,26.90
2023-03-20T14:52:04.826Z,24.90
2023-03-20T14:57:20.169Z,24.30
2023-03-20T15:02:29.080Z,23.40
2023-03-20T15:07:32.848Z,23.40
2023-03-20T15:12:38.561Z,22.40
2023-03-20T15:17:42.827Z,21.70
2023-03-20T15:22:52.993Z,21.40
2023-03-20T15:27:57.329Z,21.30
2023-03-20T15:33:01.313Z,21.10
2023-03-20T15:38:08.441Z,20.10
2023-03-20T15:43:16.489Z,19.60
2023-03-20T15:48:20.716Z,18.80
2023-03-20T15:53:28.671Z,18.10
2023-03-20T15:58:34.078Z,18.40
2023-03-20T16:03:38.359Z,18.50
2023-03-20T16:08:41.390Z,18.40
2023-03-20T16:13:47.837Z,17.10
2023-03-20T16:18:50.915Z,16.70
2023-03-20T16:23:56.293Z,17.00
2023-03-20T16:29:02.738Z,17.30
2023-03-20T16:34:09.276Z,16.70
2023-03-20T16:39:20.123Z,16.70
2023-03-20T16:44:29.227Z,16.00
2023-03-20T16:50:13.736Z,15.90
2023-03-20T16:55:19.504Z,15.80
2023-03-20T17:00:28.102Z,15.10
2023-03-20T17:05:46.052Z,14.50
2023-03-20T17:10:52.912Z,13.90
2023-03-20T17:15:57.564Z,13.40
2023-03-20T17:20:59.920Z,13.20
2023-03-20T17:26:03.299Z,12.80
2023-03-20T17:31:08.717Z,12.50
2023-03-20T17:36:19.575Z,12.20
2023-03-20T17:41:23.782Z,11.90
2023-03-20T17:46:29.519Z,11.60
2023-03-20T17:51:34.084Z,11.30
2023-03-20T17:56:37.688Z,10.90
2023-03-20T18:01:42.189Z,10.50
2023-03-20T18:06:47.860Z,10.40
2023-03-20T18:11:52.474Z,11.80
2023-03-20T18:16:57.873Z,11.40
2023-03-20T18:22:01.903Z,10.70
2023-03-20T18:27:07.028Z,10.40
2023-03-20T18:32:12.771Z,9.90
2023-03-20T18:37:17.474Z,9.80
2023-03-20T18:42:21.268Z,9.80
2023-03-20T18:47:29.682Z,9.80
2023-03-20T18:52:34.952Z,9.80
2023-03-20T18:57:43.001Z,9.60
2023-03-20T19:02:49.124Z,9.50
2023-03-20T19:07:57.124Z,9.30
2023-03-20T19:13:02.267Z,9.10
2023-03-20T19:18:10.916Z,9.00
2023-03-20T19:23:17.645Z,9.00
2023-03-20T19:28:38.689Z,8.80
2023-03-20T19:33:44.234Z,8.60
2023-03-20T19:38:51.724Z,8.70
2023-03-20T19:43:56.508Z,8.80
2023-03-20T19:49:03.034Z,8.90
2023-03-20T19:54:07.462Z,9.00
2023-03-20T19:59:12.644Z,9.10
2023-03-20T20:04:19.791Z,9.10
2023-03-20T20:09:23.425Z,9.10
2023-03-20T20:14:30.167Z,9.10
2023-03-20T20:19:36.162Z,9.10
2023-03-20T20:24:40.469Z,9.10
2023-03-20T20:29:44.226Z,9.00
2023-03-20T20:40:15.549Z,9.10
2023-03-20T20:45:20.245Z,9.00
2023-03-20T20:50:28.375Z,8.90
2023-03-20T20:56:24.719Z,9.00
2023-03-20T21:02:07.989Z,9.20
2023-03-20T21:07:16.165Z,9.60
2023-03-20T21:12:32.849Z,9.50
2023-03-20T21:17:47.244Z,9.40
2023-03-20T21:23:03.245Z,9.30
2023-03-20T21:28:06.265Z,9.10
2023-03-20T21:33:08.666Z,9.30
2023-03-20T21:38:55.395Z,9.30
2023-03-20T21:43:35.237Z,9.20
2023-03-20T22:11:09.683Z,9.20
2023-03-20T22:16:16.766Z,9.20
2023-03-20T22:21:42.539Z,9.40
2023-03-20T22:27:12.946Z,9.60
2023-03-20T22:43:15.035Z,9.30
2023-03-20T22:47:57.498Z,9.20
2023-03-20T22:52:59.730Z,9.10
2023-03-20T22:58:07.939Z,9.00
2023-03-20T23:03:22.174Z,9.10
2023-03-20T23:08:36.101Z,9.30
2023-03-20T23:13:40.077Z,9.30
2023-03-20T23:18:43.077Z,9.30
2023-03-20T23:23:45.585Z,9.10
2023-03-20T23:28:51.569Z,8.90
2023-03-20T23:33:55.775Z,8.80
2023-03-20T23:38:58.529Z,8.70
2023-03-20T23:44:02.244Z,8.70
2023-03-20T23:49:05.885Z,8.60
2023-03-20T23:54:08.074Z,8.60
2023-03-20T23:59:21.034Z,8.60
